Terminal Aerodrome Forecast
Issued by NWS

Home | Current Version | Previous Version | Text Only | Print | Product List | Glossary On
Versions: 1 2 3 4 5 6 7 8 9 10 11 12 13 14 15 16 17 18 19 20 21 22 23 24
000
FTUS44 KMAF 221100
TAFINK
TAF
KINK 221125Z 2212/2312 36004KT 5SM BR OVC005
      TEMPO 2212/2214 2SM BR
     FM221500 13008KT P6SM OVC012
     FM222100 13011KT P6SM BKN030
     FM230100 13016KT P6SM SCT030 SCT120 BKN250 PROB30 2306/2312
      TSRA BKN030CB=

USA.gov is the U.S. government's official web portal to all federal, state and local government web resources and services.